Decoded Metar for KMFD (MANSFIELD in OH, USA) (IATA:MFD) | Meteo·Mobile Aviation Weather
aviador You're here:

KMFD Decoded Metar

MANSFIELD in OH, USA
Report Time2019-03-21 14:52:00
UTC Time2019-03-21 15:40:24
Flight Rules ifr IFR
Wind250° at 06 kt
W.Decomp.*RWY 23: 5.4 kt HW 2.6 kt RCW
RWY 32: 2.6 kt HW 5.4 kt LCW
W.Rank250° ranks 8
Current wind is below 250° avg. (8.0)
Visibility9999 m
Phenomena:N/A
Clouds:Overcast 007 Hf
Expected CloudBase > 400 ft AGL from Temp-Dew spread
Ceiling700 ft
Temp06°C (ISA -6)
Dew Point05°C (93% RH)
AAT2.7°C
QNH1012 hPa
Density Alt682 ft
Elevation1,296 ft
Report Wrong Elevation
Raw Report
KMFD 211452Z 25006KT 8SM OVC007 06/05 A2988 RMK AO2 SLP122
T00610050 52001=

Extra information for KMFD:More info

Metar Taf Metar & Taf Last 4 Metars F.Rules Stats Wind Profile Meteogram Temp Stats Airport Information Weather charts Add Link Nearby VenuesMetar ALERT Operation Metar Decoded Social comments

AIRNAV info for KMFD